createdAt,value
2022-11-17T00:00:42.120Z,14.35
2022-11-17T00:03:14.791Z,13.95
2022-11-17T00:05:42.081Z,14.50
2022-11-17T00:08:09.144Z,14.52
2022-11-17T00:10:36.223Z,14.95
2022-11-17T00:13:21.741Z,15.60
2022-11-17T00:15:48.818Z,14.75
2022-11-17T00:18:34.261Z,15.10
2022-11-17T00:21:19.946Z,14.35
2022-11-17T00:23:47.924Z,14.27
2022-11-17T00:26:17.359Z,13.88
2022-11-17T00:28:44.725Z,13.80
2022-11-17T00:31:34.149Z,13.80
2022-11-17T00:34:07.158Z,14.50
2022-11-17T00:36:49.077Z,14.20
2022-11-17T00:39:17.952Z,13.60
2022-11-17T00:41:45.048Z,14.55
2022-11-17T00:44:12.723Z,14.32
2022-11-17T00:46:41.100Z,14.80
2022-11-17T00:49:09.492Z,14.65
2022-11-17T00:51:37.442Z,14.60
2022-11-17T00:54:06.189Z,14.60
2022-11-17T00:56:33.907Z,14.10
2022-11-17T00:59:01.125Z,15.15
2022-11-17T01:01:29.811Z,13.98
2022-11-17T01:04:05.130Z,14.02
2022-11-17T01:06:44.372Z,14.77
2022-11-17T01:09:17.884Z,14.55
2022-11-17T01:11:45.335Z,14.68
2022-11-17T01:14:19.309Z,13.88
2022-11-17T01:16:46.711Z,13.55
2022-11-17T01:19:15.014Z,13.95
2022-11-17T01:21:42.545Z,14.98
2022-11-17T01:24:11.702Z,14.25
2022-11-17T01:26:40.256Z,14.82
2022-11-17T01:29:08.675Z,14.35
2022-11-17T01:31:38.729Z,13.82
2022-11-17T01:34:07.471Z,14.73
2022-11-17T01:36:56.191Z,14.95
2022-11-17T01:39:25.322Z,13.65
2022-11-17T01:41:53.919Z,14.27
2022-11-17T01:44:36.441Z,13.05
2022-11-17T01:47:05.711Z,13.97
2022-11-17T01:49:33.643Z,13.70
2022-11-17T01:52:06.263Z,13.38
2022-11-17T01:54:37.636Z,13.45
2022-11-17T01:57:19.702Z,12.23
2022-11-17T02:00:00.753Z,13.23
2022-11-17T02:02:28.987Z,11.95
2022-11-17T02:05:34.438Z,13.50
2022-11-17T02:08:05.313Z,11.60
2022-11-17T02:10:32.983Z,12.25
2022-11-17T02:13:01.452Z,12.48
2022-11-17T02:15:30.089Z,12.38
2022-11-17T02:17:58.614Z,12.40
2022-11-17T02:20:53.553Z,12.40
2022-11-17T02:23:58.320Z,13.25
2022-11-17T02:26:39.937Z,13.18
2022-11-17T02:29:21.391Z,13.60
2022-11-17T02:31:55.969Z,13.25
2022-11-17T02:34:41.700Z,12.80
2022-11-17T02:37:33.781Z,14.13
2022-11-17T02:40:31.115Z,14.65
2022-11-17T02:43:33.325Z,12.93
2022-11-17T02:46:08.773Z,13.60
2022-11-17T02:48:48.597Z,12.88
2022-11-17T02:51:21.511Z,13.57
2022-11-17T02:53:51.817Z,13.27
2022-11-17T02:56:18.974Z,12.68
2022-11-17T02:58:48.425Z,12.52
2022-11-17T03:01:34.224Z,11.98
2022-11-17T03:04:04.261Z,12.65
2022-11-17T03:06:57.873Z,13.57
2022-11-17T03:09:41.305Z,13.15
2022-11-17T03:12:21.989Z,13.63
2022-11-17T03:14:55.859Z,13.10
2022-11-17T03:17:32.851Z,13.95
2022-11-17T03:20:13.211Z,14.77
2022-11-17T03:22:43.706Z,13.15
2022-11-17T03:25:16.875Z,12.95
2022-11-17T03:27:53.052Z,12.98
2022-11-17T03:30:22.523Z,13.80
2022-11-17T03:32:53.301Z,12.18
2022-11-17T03:35:26.998Z,13.48
2022-11-17T03:37:59.430Z,12.52
2022-11-17T03:40:29.401Z,13.63
2022-11-17T03:43:01.649Z,12.50
2022-11-17T03:45:32.227Z,13.30
2022-11-17T03:48:10.548Z,13.32
2022-11-17T03:50:43.544Z,11.82
2022-11-17T03:53:10.875Z,12.77
2022-11-17T03:55:47.709Z,12.30
2022-11-17T03:58:22.593Z,14.05
2022-11-17T04:00:52.735Z,15.32
2022-11-17T04:03:22.763Z,14.15
2022-11-17T04:05:49.875Z,14.45
2022-11-17T04:08:17.057Z,13.75
2022-11-17T04:11:02.610Z,12.77
2022-11-17T04:13:48.161Z,13.77
2022-11-17T04:16:15.233Z,14.32
2022-11-17T04:18:42.308Z,14.10
2022-11-17T04:21:09.339Z,14.38
2022-11-17T04:23:36.667Z,16.55
2022-11-17T04:26:22.642Z,16.20
2022-11-17T04:28:51.004Z,15.55
2022-11-17T04:31:22.973Z,14.35
2022-11-17T04:33:52.940Z,12.77
2022-11-17T04:36:23.104Z,13.48
2022-11-17T04:38:52.395Z,13.73
2022-11-17T04:41:39.441Z,14.15
2022-11-17T04:44:08.788Z,13.52
2022-11-17T04:46:37.571Z,14.05
2022-11-17T04:49:05.693Z,13.65
2022-11-17T04:51:34.055Z,13.18
2022-11-17T04:54:02.065Z,12.82
2022-11-17T04:56:29.637Z,13.48
2022-11-17T04:58:57.103Z,14.50
2022-11-17T05:01:25.548Z,15.30
2022-11-17T05:04:01.006Z,15.80
2022-11-17T05:06:29.722Z,16.05
2022-11-17T05:08:57.102Z,18.00
2022-11-17T05:11:45.518Z,16.95
2022-11-17T05:14:14.398Z,15.98
2022-11-17T05:17:04.553Z,15.95
2022-11-17T05:19:39.175Z,16.65
2022-11-17T05:22:26.344Z,14.00
2022-11-17T05:24:53.447Z,16.55
2022-11-17T05:27:21.581Z,18.25
2022-11-17T05:29:48.614Z,16.67
2022-11-17T05:32:15.892Z,18.48
2022-11-17T05:34:42.920Z,18.90
2022-11-17T05:37:10.285Z,19.58
2022-11-17T05:39:37.416Z,17.70
2022-11-17T05:42:04.708Z,17.25
2022-11-17T05:44:32.074Z,17.00
2022-11-17T05:46:59.290Z,16.42
2022-11-17T05:49:26.391Z,14.65
2022-11-17T05:51:53.496Z,13.07
2022-11-17T05:54:20.823Z,14.50
2022-11-17T05:57:05.978Z,16.88
2022-11-17T05:59:42.109Z,12.32
2022-11-17T06:02:21.053Z,12.63
2022-11-17T06:04:50.550Z,12.65
2022-11-17T06:07:18.490Z,11.40
2022-11-17T06:09:46.165Z,10.57
2022-11-17T06:12:13.427Z,9.75
2022-11-17T06:14:40.601Z,9.95
2022-11-17T06:17:30.655Z,9.50
2022-11-17T06:20:03.034Z,10.40
2022-11-17T06:22:32.575Z,7.78
2022-11-17T06:25:02.166Z,7.65
2022-11-17T06:27:32.616Z,6.15
2022-11-17T06:30:03.757Z,7.65
2022-11-17T06:32:36.599Z,7.20
2022-11-17T06:35:08.019Z,8.43
2022-11-17T06:37:35.026Z,7.45
2022-11-17T06:40:02.095Z,6.25
2022-11-17T06:42:49.208Z,6.13
2022-11-17T06:45:16.375Z,4.90
2022-11-17T06:47:43.392Z,7.05
2022-11-17T06:50:10.743Z,6.28
2022-11-17T06:52:38.802Z,7.07
2022-11-17T06:55:06.717Z,6.55
2022-11-17T06:57:33.807Z,7.53
2022-11-17T07:00:00.895Z,6.60
2022-11-17T07:02:28.082Z,7.30
2022-11-17T07:04:55.225Z,7.68
2022-11-17T07:07:22.269Z,8.43
2022-11-17T07:09:49.550Z,7.68
2022-11-17T07:12:17.072Z,8.18
2022-11-17T07:14:44.966Z,8.13
2022-11-17T07:17:11.985Z,8.30
2022-11-17T07:19:39.761Z,8.50
2022-11-17T07:22:10.106Z,9.45
2022-11-17T07:24:37.176Z,7.68
2022-11-17T07:27:04.998Z,5.93
2022-11-17T07:29:32.233Z,7.00
2022-11-17T07:31:59.227Z,7.00
2022-11-17T07:34:26.304Z,7.60
2022-11-17T07:36:53.337Z,9.68
2022-11-17T07:39:21.975Z,8.32
2022-11-17T07:41:49.310Z,9.02
2022-11-17T07:44:16.396Z,8.68
2022-11-17T07:46:43.502Z,8.30
2022-11-17T07:49:10.659Z,8.07
2022-11-17T07:51:37.686Z,8.20
2022-11-17T07:54:05.049Z,8.20
2022-11-17T07:56:32.148Z,5.55
2022-11-17T07:58:59.296Z,7.05
2022-11-17T08:01:29.914Z,9.02
2022-11-17T08:03:57.958Z,11.40
2022-11-17T08:06:25.204Z,10.25
2022-11-17T08:08:53.784Z,10.90
2022-11-17T08:11:21.201Z,10.65
2022-11-17T08:13:50.225Z,10.30
2022-11-17T08:16:17.293Z,10.45
2022-11-17T08:18:50.531Z,7.90
2022-11-17T08:21:19.068Z,6.82
2022-11-17T08:23:51.396Z,8.10
2022-11-17T08:26:20.876Z,8.88
2022-11-17T08:28:51.061Z,5.35
2022-11-17T08:31:20.618Z,6.15
2022-11-17T08:33:47.602Z,7.22
2022-11-17T08:36:14.644Z,8.25
2022-11-17T08:38:41.631Z,8.75
2022-11-17T08:41:10.139Z,8.15
2022-11-17T08:43:37.252Z,7.80
2022-11-17T08:46:04.781Z,9.52
2022-11-17T08:48:32.654Z,8.55
2022-11-17T08:51:06.080Z,8.30
2022-11-17T08:56:00.501Z,5.70
2022-11-17T08:58:27.607Z,6.55
2022-11-17T09:00:54.793Z,6.15
2022-11-17T09:03:21.902Z,5.80
2022-11-17T09:05:49.171Z,7.43
2022-11-17T09:11:10.112Z,6.53
2022-11-17T09:13:38.399Z,6.35
2022-11-17T09:16:10.479Z,5.22
2022-11-17T09:18:39.179Z,5.18
2022-11-17T09:21:09.148Z,4.35
2022-11-17T09:23:36.689Z,5.43
2022-11-17T09:26:06.788Z,5.03
2022-11-17T09:28:34.397Z,5.00
2022-11-17T09:31:10.199Z,5.75
2022-11-17T09:33:37.655Z,5.57
2022-11-17T09:36:07.372Z,4.90
2022-11-17T09:38:36.673Z,4.38
2022-11-17T09:41:16.298Z,4.13
2022-11-17T09:43:48.855Z,4.93
2022-11-17T09:46:23.421Z,3.58
2022-11-17T09:49:27.123Z,4.25
2022-11-17T09:52:00.441Z,4.80
2022-11-17T09:54:38.489Z,4.88
2022-11-17T09:57:13.162Z,5.00
2022-11-17T09:59:40.452Z,4.00
2022-11-17T10:02:11.101Z,4.78
2022-11-17T10:04:38.211Z,3.55
2022-11-17T10:07:07.541Z,2.67
2022-11-17T10:09:41.527Z,4.25
2022-11-17T10:12:26.768Z,4.10
2022-11-17T10:14:55.275Z,3.88
2022-11-17T10:17:22.359Z,4.63
2022-11-17T10:19:49.455Z,4.20
2022-11-17T10:22:32.982Z,4.47
2022-11-17T10:27:36.037Z,3.95
2022-11-17T10:30:07.212Z,4.43
2022-11-17T10:32:48.309Z,4.22
2022-11-17T10:35:31.981Z,4.22
2022-11-17T10:38:06.983Z,4.63
2022-11-17T10:40:40.218Z,4.18
2022-11-17T10:46:02.698Z,4.95
2022-11-17T10:48:38.311Z,4.30
2022-11-17T10:51:22.252Z,4.47
2022-11-17T10:54:17.478Z,4.75
2022-11-17T10:56:48.332Z,4.93
2022-11-17T10:59:18.517Z,3.70
2022-11-17T11:01:49.880Z,4.25
2022-11-17T11:04:35.659Z,4.05
2022-11-17T11:07:10.801Z,3.97
2022-11-17T11:09:49.171Z,3.10
2022-11-17T11:12:23.250Z,3.90
2022-11-17T11:14:58.510Z,3.28
2022-11-17T11:17:29.463Z,3.50
2022-11-17T11:19:59.687Z,3.40
2022-11-17T11:22:57.852Z,2.75
2022-11-17T11:25:36.626Z,2.95
2022-11-17T11:28:29.896Z,2.17
2022-11-17T11:31:19.334Z,2.78
2022-11-17T11:34:15.529Z,2.42
2022-11-17T11:37:00.236Z,2.80
2022-11-17T11:39:45.182Z,1.77
2022-11-17T11:42:34.035Z,2.38
2022-11-17T11:45:19.685Z,2.25
2022-11-17T11:48:05.092Z,3.00
2022-11-17T11:50:43.588Z,2.60
2022-11-17T11:53:28.913Z,1.95
2022-11-17T11:56:08.717Z,2.55
2022-11-17T11:58:40.776Z,2.38
2022-11-17T12:01:12.231Z,2.70
2022-11-17T12:04:16.036Z,2.83
2022-11-17T12:07:16.913Z,2.92
2022-11-17T12:09:59.277Z,2.83
2022-11-17T12:12:40.418Z,2.67
2022-11-17T12:15:14.003Z,2.45
2022-11-17T12:18:02.725Z,3.60
2022-11-17T12:20:39.061Z,3.40
2022-11-17T12:23:27.811Z,3.90
2022-11-17T12:25:59.408Z,4.00
2022-11-17T12:28:50.601Z,4.15
2022-11-17T12:31:43.304Z,4.30
2022-11-17T12:34:31.459Z,4.40
2022-11-17T12:37:21.978Z,3.67
2022-11-17T12:39:59.371Z,3.95
2022-11-17T12:42:29.946Z,3.55
2022-11-17T12:45:00.991Z,3.95
2022-11-17T12:47:34.142Z,3.72
2022-11-17T12:50:17.167Z,4.15
2022-11-17T12:52:44.345Z,4.53
2022-11-17T12:55:33.348Z,4.40
2022-11-17T12:58:10.810Z,2.88
2022-11-17T13:00:48.043Z,4.13
2022-11-17T13:03:47.126Z,2.45
2022-11-17T13:09:12.782Z,3.28
2022-11-17T13:11:39.821Z,2.80
2022-11-17T13:14:13.136Z,3.35
2022-11-17T13:16:49.896Z,2.97
2022-11-17T13:19:38.436Z,2.33
2022-11-17T13:22:17.207Z,2.38
2022-11-17T13:24:47.287Z,2.65
2022-11-17T13:27:27.313Z,2.80
2022-11-17T13:30:13.271Z,2.50
2022-11-17T13:32:42.230Z,2.78
2022-11-17T13:35:38.709Z,3.33
2022-11-17T13:38:19.250Z,3.03
2022-11-17T13:40:47.823Z,3.33
2022-11-17T13:43:24.259Z,2.85
2022-11-17T13:45:53.310Z,2.95
2022-11-17T13:51:39.379Z,3.00
2022-11-17T13:54:14.252Z,3.30
2022-11-17T13:57:13.828Z,2.72
2022-11-17T13:59:41.165Z,3.30
2022-11-17T14:02:17.221Z,2.97
2022-11-17T14:05:15.181Z,3.08
2022-11-17T14:07:44.376Z,2.90
2022-11-17T14:10:15.639Z,3.13
2022-11-17T14:12:42.787Z,3.38
2022-11-17T14:15:20.859Z,3.13
2022-11-17T14:17:56.849Z,3.13
2022-11-17T14:20:23.890Z,2.35
2022-11-17T14:23:10.795Z,3.15
2022-11-17T14:25:40.623Z,2.97
2022-11-17T14:28:18.608Z,3.45
2022-11-17T14:30:50.316Z,3.17
2022-11-17T14:33:17.701Z,3.28
2022-11-17T14:35:54.244Z,2.75
2022-11-17T14:38:24.177Z,3.40
2022-11-17T14:41:21.049Z,4.32
2022-11-17T14:43:51.413Z,3.53
2022-11-17T14:46:27.826Z,3.20
2022-11-17T14:48:55.866Z,2.85
2022-11-17T14:51:23.845Z,2.60
2022-11-17T14:53:51.241Z,2.95
2022-11-17T14:56:21.010Z,3.97
2022-11-17T14:58:52.852Z,2.67
2022-11-17T15:01:31.733Z,3.17
2022-11-17T15:04:20.849Z,2.90
2022-11-17T15:06:50.784Z,3.05
2022-11-17T15:09:18.087Z,3.45
2022-11-17T15:11:45.267Z,3.58
2022-11-17T15:14:12.496Z,3.45
2022-11-17T15:16:39.632Z,3.13
2022-11-17T15:19:06.915Z,3.03
2022-11-17T15:21:34.083Z,2.58
2022-11-17T15:24:03.497Z,3.35
2022-11-17T15:26:30.873Z,3.50
2022-11-17T15:28:58.130Z,3.45
2022-11-17T15:31:25.416Z,2.47
2022-11-17T15:33:53.144Z,2.80
2022-11-17T15:36:22.908Z,3.05
2022-11-17T15:38:50.246Z,3.13
2022-11-17T15:41:17.384Z,3.33
2022-11-17T15:43:45.728Z,3.17
2022-11-17T15:46:15.016Z,3.28
2022-11-17T15:48:43.824Z,2.75
2022-11-17T15:51:16.123Z,3.10
2022-11-17T15:53:44.744Z,2.78
2022-11-17T15:56:13.236Z,2.53
2022-11-17T15:58:41.884Z,2.85
2022-11-17T16:01:41.360Z,3.45
2022-11-17T16:04:13.657Z,2.33
2022-11-17T16:06:43.045Z,3.60
2022-11-17T16:09:12.294Z,2.97
2022-11-17T16:11:40.067Z,3.28
2022-11-17T16:14:07.480Z,3.10
2022-11-17T16:16:39.356Z,4.18
2022-11-17T16:19:07.049Z,3.20
2022-11-17T16:21:34.316Z,2.40
2022-11-17T16:24:02.383Z,2.88
2022-11-17T16:26:32.963Z,3.05
2022-11-17T16:29:02.244Z,2.70
2022-11-17T16:31:31.535Z,3.05
2022-11-17T16:34:13.047Z,3.13
2022-11-17T16:36:42.810Z,4.30
2022-11-17T16:39:13.531Z,2.97
2022-11-17T16:41:42.972Z,3.13
2022-11-17T16:44:12.482Z,3.50
2022-11-17T16:46:45.881Z,3.55
2022-11-17T16:49:15.562Z,3.25
2022-11-17T16:51:51.102Z,2.58
2022-11-17T16:54:18.836Z,3.08
2022-11-17T16:56:46.327Z,3.30
2022-11-17T16:59:14.140Z,2.25
2022-11-17T17:01:42.177Z,3.33
2022-11-17T17:04:12.226Z,3.00
2022-11-17T17:06:41.681Z,3.00
2022-11-17T17:09:10.275Z,3.60
2022-11-17T17:11:38.543Z,3.25
2022-11-17T17:14:08.443Z,3.30
2022-11-17T17:16:37.045Z,4.07
2022-11-17T17:19:07.390Z,4.05
2022-11-17T17:21:36.662Z,2.58
2022-11-17T17:24:07.012Z,4.18
2022-11-17T17:26:35.989Z,3.38
2022-11-17T17:29:06.013Z,3.15
2022-11-17T17:31:36.862Z,3.63
2022-11-17T17:34:06.524Z,3.83
2022-11-17T17:36:35.004Z,4.22
2022-11-17T17:39:06.279Z,3.60
2022-11-17T17:41:38.130Z,3.85
2022-11-17T17:44:07.335Z,3.17
2022-11-17T17:46:38.476Z,3.72
2022-11-17T17:49:08.783Z,3.85
2022-11-17T17:51:40.121Z,3.33
2022-11-17T17:54:10.405Z,3.63
2022-11-17T17:56:37.654Z,2.88
2022-11-17T17:59:04.722Z,3.35
2022-11-17T18:01:37.572Z,3.22
2022-11-17T18:04:05.283Z,3.30
2022-11-17T18:06:40.672Z,4.38
2022-11-17T18:09:09.230Z,3.20
2022-11-17T18:11:37.129Z,3.42
2022-11-17T18:14:04.732Z,3.15
2022-11-17T18:16:33.768Z,3.40
2022-11-17T18:19:04.405Z,3.45
2022-11-17T18:21:32.866Z,3.00
2022-11-17T18:24:01.431Z,3.58
2022-11-17T18:26:36.200Z,3.63
2022-11-17T18:29:16.099Z,3.75
2022-11-17T18:31:46.806Z,3.92
2022-11-17T18:34:22.669Z,4.28
2022-11-17T18:36:55.745Z,3.67
2022-11-17T18:39:23.488Z,4.13
2022-11-17T18:41:50.690Z,3.13
2022-11-17T18:44:19.667Z,4.68
2022-11-17T18:46:46.928Z,3.42
2022-11-17T18:49:14.445Z,3.70
2022-11-17T18:51:41.975Z,2.50
2022-11-17T18:54:12.012Z,3.80
2022-11-17T18:56:40.018Z,3.88
2022-11-17T18:59:11.874Z,3.50
2022-11-17T19:01:41.392Z,3.80
2022-11-17T19:04:09.901Z,3.70
2022-11-17T19:06:37.442Z,3.58
2022-11-17T19:09:04.567Z,3.10
2022-11-17T19:11:32.996Z,3.38
2022-11-17T19:14:05.334Z,3.88
2022-11-17T19:16:33.358Z,3.40
2022-11-17T19:19:00.483Z,3.85
2022-11-17T19:21:30.395Z,3.05
2022-11-17T19:23:59.603Z,3.42
2022-11-17T19:26:32.438Z,4.32
2022-11-17T19:29:02.027Z,4.22
2022-11-17T19:31:29.523Z,3.95
2022-11-17T19:33:57.920Z,4.45
2022-11-17T19:36:29.427Z,3.38
2022-11-17T19:38:58.322Z,4.18
2022-11-17T19:41:30.729Z,4.20
2022-11-17T19:44:04.063Z,4.40
2022-11-17T19:46:31.537Z,3.65
2022-11-17T19:48:59.059Z,3.60
2022-11-17T19:51:32.496Z,3.67
2022-11-17T19:56:31.645Z,2.35
2022-11-17T19:58:59.147Z,3.42
2022-11-17T20:01:30.241Z,4.00
2022-11-17T20:04:00.153Z,3.78
2022-11-17T20:06:29.801Z,3.47
2022-11-17T20:08:57.695Z,3.80
2022-11-17T20:11:28.331Z,4.00
2022-11-17T20:13:55.993Z,4.38
2022-11-17T20:16:25.693Z,3.72
2022-11-17T20:18:55.301Z,3.90
2022-11-17T20:21:23.002Z,3.58
2022-11-17T20:23:50.186Z,3.38
2022-11-17T20:26:19.966Z,3.75
2022-11-17T20:28:48.101Z,3.55
2022-11-17T20:31:19.474Z,3.67
2022-11-17T20:33:47.888Z,4.07
2022-11-17T20:36:17.401Z,3.20
2022-11-17T20:38:45.281Z,3.47
2022-11-17T20:41:12.286Z,4.10
2022-11-17T20:43:39.406Z,3.65
2022-11-17T20:46:06.646Z,4.90
2022-11-17T20:48:35.475Z,4.05
2022-11-17T20:51:09.481Z,4.60
2022-11-17T20:53:36.927Z,4.22
2022-11-17T20:56:06.774Z,3.45
2022-11-17T20:58:34.914Z,4.25
2022-11-17T21:01:14.651Z,4.47
2022-11-17T21:03:42.623Z,2.88
2022-11-17T21:06:10.292Z,4.68
2022-11-17T21:08:40.116Z,4.30
2022-11-17T21:11:36.489Z,4.50
2022-11-17T21:14:05.221Z,3.40
2022-11-17T21:16:33.085Z,3.60
2022-11-17T21:19:00.498Z,4.80
2022-11-17T21:21:27.774Z,4.80
2022-11-17T21:23:56.174Z,5.90
2022-11-17T21:26:23.751Z,4.82
2022-11-17T21:28:52.255Z,3.85
2022-11-17T21:31:25.468Z,4.65
2022-11-17T21:36:22.510Z,4.18
2022-11-17T21:38:49.943Z,5.15
2022-11-17T21:41:20.528Z,4.55
2022-11-17T21:43:49.235Z,3.90
2022-11-17T21:46:19.764Z,4.00
2022-11-17T21:48:47.744Z,4.03
2022-11-17T21:51:17.820Z,3.55
2022-11-17T21:53:45.594Z,3.70
2022-11-17T21:56:13.776Z,4.25
2022-11-17T21:58:41.395Z,5.03
2022-11-17T22:01:16.121Z,4.18
2022-11-17T22:03:43.651Z,4.38
2022-11-17T22:06:19.366Z,5.18
2022-11-17T22:08:47.758Z,4.57
2022-11-17T22:11:35.415Z,4.75
2022-11-17T22:14:05.720Z,4.00
2022-11-17T22:16:33.670Z,4.25
2022-11-17T22:19:00.949Z,5.00
2022-11-17T22:21:28.365Z,3.60
2022-11-17T22:23:55.693Z,4.30
2022-11-17T22:26:23.407Z,5.70
2022-11-17T22:28:52.329Z,4.20
2022-11-17T22:31:19.765Z,4.25
2022-11-17T22:33:47.485Z,4.70
2022-11-17T22:36:16.070Z,4.38
2022-11-17T22:38:43.574Z,4.78
2022-11-17T22:41:12.678Z,4.45
2022-11-17T22:43:39.699Z,3.85
2022-11-17T22:46:09.872Z,4.40
2022-11-17T22:48:38.408Z,4.20
2022-11-17T22:51:06.691Z,4.93
2022-11-17T22:53:34.407Z,4.03
2022-11-17T22:56:07.845Z,4.20
2022-11-17T22:58:35.046Z,3.65
2022-11-17T23:01:07.218Z,4.68
2022-11-17T23:03:34.478Z,5.00
2022-11-17T23:06:05.730Z,4.35
2022-11-17T23:08:33.214Z,4.63
2022-11-17T23:11:35.583Z,4.20
2022-11-17T23:13:54.147Z,5.18
2022-11-17T23:16:21.192Z,5.22
2022-11-17T23:18:51.579Z,4.75
2022-11-17T23:21:18.634Z,5.13
2022-11-17T23:23:45.806Z,4.18
2022-11-17T23:26:13.502Z,4.00
2022-11-17T23:28:42.523Z,4.47
2022-11-17T23:31:15.001Z,3.20
2022-11-17T23:33:44.089Z,3.60
2022-11-17T23:36:20.026Z,4.25
2022-11-17T23:38:47.581Z,3.65
2022-11-17T23:41:17.041Z,4.70
2022-11-17T23:43:44.161Z,5.22
2022-11-17T23:46:16.330Z,4.93
2022-11-17T23:48:44.205Z,4.80
2022-11-17T23:51:17.168Z,3.70
2022-11-17T23:53:44.384Z,4.53
2022-11-17T23:56:11.471Z,4.18
2022-11-17T23:58:38.998Z,5.25
